Time;durP1;ratioP1;P1;durP2;ratioP2;P2;SDS_P1;SDS_P2;PMS_P1;PMS_P2;Temp;Humidity;BMP_temperature;BMP_pressure;BME280_temperature;BME280_humidity;BME280_pressure;Samples;Min_cycle;Max_cycle;Signal;HPM_P1;HPM_P2
2022/11/16 00:00:24;;;;;;;17.40;15.50;;;13.30;99.90;;;13.49;100.00;99618.13;5096001;28;20061;-70
2022/11/16 00:02:53;;;;;;;15.65;14.05;;;13.30;99.90;;;13.50;100.00;99615.38;5113365;28;20377;-69
2022/11/16 00:05:22;;;;;;;16.75;15.10;;;13.40;99.90;;;13.54;100.00;99610.81;5113733;28;20153;-70
2022/11/16 00:07:55;;;;;;;16.38;14.77;;;13.40;99.90;;;13.61;100.00;99628.25;5095798;28;20396;-69
2022/11/16 00:10:24;;;;;;;16.92;15.13;;;13.50;99.90;;;13.60;100.00;99615.91;5095403;28;20047;-69
2022/11/16 00:12:52;;;;;;;14.65;13.00;;;13.50;99.90;;;13.60;100.00;99618.56;5113287;28;20050;-69
2022/11/16 00:15:21;;;;;;;15.65;14.02;;;13.40;99.90;;;13.59;100.00;99617.69;5113776;28;20048;-69
2022/11/16 00:17:49;;;;;;;16.75;13.80;;;13.50;99.90;;;13.69;100.00;99622.66;5113157;28;20054;-71
2022/11/16 00:20:19;;;;;;;16.77;14.13;;;13.50;99.90;;;13.64;100.00;99616.66;5112998;28;20551;-69
2022/11/16 00:22:47;;;;;;;16.83;14.93;;;13.50;99.90;;;13.63;100.00;99620.25;5113051;28;20464;-69
2022/11/16 00:25:16;;;;;;;15.20;13.77;;;13.50;99.90;;;13.75;100.00;99627.75;5113273;28;20050;-69
2022/11/16 00:27:44;;;;;;;15.82;14.23;;;13.60;99.90;;;13.74;100.00;99628.69;5113155;28;20083;-69
2022/11/16 00:30:14;;;;;;;15.70;14.10;;;13.60;99.90;;;13.93;100.00;99630.63;5113173;28;20036;-69
2022/11/16 00:32:42;;;;;;;16.10;14.48;;;13.70;99.90;;;13.76;100.00;99616.22;5094781;28;20053;-69
2022/11/16 00:35:11;;;;;;;17.67;15.40;;;13.70;99.90;;;13.91;100.00;99626.28;5116122;28;20526;-71
2022/11/16 00:37:40;;;;;;;16.67;14.95;;;13.80;99.90;;;13.98;100.00;99625.09;5098910;28;20061;-69
2022/11/16 00:40:11;;;;;;;16.90;15.25;;;13.80;99.90;;;13.88;100.00;99632.56;5117849;28;20094;-70
2022/11/16 00:42:39;;;;;;;15.60;14.10;;;13.80;99.90;;;13.89;100.00;99630.78;5098872;28;20051;-70
2022/11/16 00:45:09;;;;;;;13.85;12.43;;;13.70;99.90;;;13.96;100.00;99633.16;5117029;28;20405;-69
2022/11/16 00:47:38;;;;;;;12.27;11.07;;;13.80;99.90;;;13.97;100.00;99634.03;5117019;28;20110;-70
2022/11/16 00:50:07;;;;;;;12.80;11.50;;;13.80;99.90;;;14.10;100.00;99637.94;5116860;28;20058;-71
2022/11/16 00:52:35;;;;;;;12.50;11.30;;;13.80;99.90;;;14.24;100.00;99643.59;5116935;28;20063;-71
2022/11/16 00:55:07;;;;;;;13.13;11.73;;;14.00;99.90;;;14.21;100.00;99643.69;5117032;28;20036;-70
2022/11/16 00:57:36;;;;;;;13.23;11.88;;;14.00;99.90;;;14.22;100.00;99642.78;5098667;28;20039;-71
2022/11/16 01:00:06;;;;;;;13.45;12.13;;;14.00;99.90;;;14.32;100.00;99638.88;5116908;28;20046;-70
2022/11/16 01:02:35;;;;;;;13.10;11.70;;;14.00;99.90;;;14.39;100.00;99645.69;5098513;28;20044;-70
2022/11/16 01:05:04;;;;;;;13.15;11.68;;;14.10;99.90;;;14.33;100.00;99637.94;5098068;28;20040;-70
2022/11/16 01:07:32;;;;;;;12.77;11.30;;;14.10;99.90;;;14.24;100.00;99625.84;5098088;28;20051;-70
2022/11/16 01:10:01;;;;;;;12.65;11.35;;;14.10;99.90;;;14.42;100.00;99635.78;5098191;28;20456;-70
2022/11/16 01:12:30;;;;;;;13.73;11.15;;;14.10;99.90;;;14.40;100.00;99628.81;5116241;28;20057;-70
2022/11/16 01:14:59;;;;;;;12.73;11.10;;;14.10;99.90;;;14.33;100.00;99612.22;5098219;28;20126;-70
2022/11/16 01:17:28;;;;;;;12.45;11.20;;;14.20;99.90;;;14.44;100.00;99612.66;5116492;28;20126;-70
2022/11/16 01:19:57;;;;;;;13.00;11.80;;;14.20;99.90;;;14.53;100.00;99619.41;5116418;28;20085;-70
2022/11/16 01:22:25;;;;;;;12.50;11.30;;;14.20;99.90;;;14.59;100.00;99618.28;5097983;28;20050;-70
2022/11/16 01:24:54;;;;;;;13.40;12.07;;;14.30;99.90;;;14.63;100.00;99626.09;5115941;28;20039;-70
2022/11/16 01:27:22;;;;;;;15.07;11.32;;;14.30;99.90;;;14.65;100.00;99618.03;5116202;28;20059;-70
2022/11/16 01:29:52;;;;;;;12.45;11.35;;;14.30;99.90;;;14.65;100.00;99626.91;5115824;28;20036;-69
2022/11/16 01:32:20;;;;;;;12.45;11.10;;;14.30;99.90;;;14.69;100.00;99622.31;5115891;28;20561;-70
2022/11/16 01:34:49;;;;;;;12.23;10.48;;;14.30;99.90;;;14.68;100.00;99616.09;5097879;28;20454;-70
2022/11/16 01:37:27;;;;;;;12.02;10.57;;;14.40;99.90;;;14.72;100.00;99620.38;5097855;28;20108;-69
2022/11/16 01:39:55;;;;;;;13.77;11.25;;;14.40;99.90;;;14.65;100.00;99594.09;5116440;28;20131;-69
2022/11/16 01:42:29;;;;;;;13.13;11.32;;;14.40;99.90;;;14.75;100.00;99628.22;5097402;28;20059;-69
2022/11/16 01:45:09;;;;;;;12.30;11.10;;;14.50;99.90;;;14.77;100.00;99615.72;5115677;28;20046;-69
2022/11/16 01:47:38;;;;;;;13.90;11.38;;;14.50;99.90;;;14.78;100.00;99617.47;5097463;28;20044;-69
2022/11/16 01:50:11;;;;;;;13.55;10.90;;;14.50;99.90;;;14.70;100.00;99616.91;5115898;28;20051;-69
2022/11/16 01:52:53;;;;;;;12.60;11.43;;;14.40;99.90;;;14.69;100.00;99609.00;5097112;28;20047;-70
2022/11/16 01:55:23;;;;;;;;;;;14.40;99.90;;;14.77;100.00;99631.69;5098035;28;20071;-69
2022/11/16 01:58:06;;;;;;;12.30;11.02;;;14.50;99.90;;;14.76;99.79;99623.78;5097577;28;19920;-70
2022/11/16 02:00:39;;;;;;;12.07;10.88;;;14.50;99.90;;;14.78;99.37;99622.78;5096984;28;20093;-69
2022/11/16 02:03:34;;;;;;;12.60;11.02;;;14.50;99.90;;;14.77;99.19;99634.34;5111311;28;20051;-69
2022/11/16 02:06:31;;;;;;;12.68;11.18;;;14.50;99.90;;;14.75;98.89;99638.88;5097200;28;20477;-70
2022/11/16 02:12:31;;;;;;;;;;;14.40;99.90;;;14.69;98.66;99625.81;5098314;28;20048;-70
2022/11/16 02:15:15;;;;;;;15.82;11.50;;;14.40;99.90;;;14.69;98.83;99631.13;5098151;28;19951;-69
2022/11/16 02:18:05;;;;;;;11.80;10.57;;;14.40;99.90;;;14.44;98.61;99586.03;5098164;28;20051;-69
2022/11/16 02:20:55;;;;;;;11.07;9.98;;;14.40;99.90;;;14.67;98.13;99630.34;5115577;28;20044;-70
2022/11/16 02:24:02;;;;;;;13.45;10.57;;;14.40;99.90;;;14.67;98.15;99619.72;5096841;28;20044;-69
2022/11/16 02:27:00;;;;;;;10.20;9.25;;;14.40;99.90;;;14.66;97.35;99635.72;5067970;28;20059;-69
2022/11/16 02:29:34;;;;;;;10.07;8.88;;;14.40;99.90;;;14.67;97.21;99619.72;5097903;28;20583;-69
2022/11/16 02:32:09;;;;;;;10.07;7.88;;;14.40;99.90;;;14.60;96.46;99620.00;5115429;28;20091;-69
2022/11/16 02:34:44;;;;;;;12.10;7.88;;;14.30;99.90;;;14.58;96.09;99622.72;5097051;28;20048;-69
2022/11/16 02:37:17;;;;;;;9.60;7.47;;;14.30;99.90;;;14.50;95.55;99616.00;5097551;28;20090;-69
2022/11/16 02:39:50;;;;;;;13.13;7.38;;;14.20;99.90;;;14.51;95.05;99618.59;5096946;28;20051;-69
2022/11/16 02:42:26;;;;;;;9.25;6.15;;;14.20;99.90;;;14.44;94.42;99623.28;5115180;28;20122;-69
2022/11/16 02:44:59;;;;;;;12.73;6.28;;;14.20;99.90;;;14.46;94.08;99620.56;5096483;28;20043;-69
2022/11/16 02:47:33;;;;;;;9.23;6.50;;;14.20;99.90;;;14.46;93.70;99625.88;5096841;28;20526;-69
2022/11/16 02:50:08;;;;;;;9.23;6.03;;;14.20;99.90;;;13.81;93.44;99511.47;5096714;28;20082;-69
2022/11/16 02:52:37;;;;;;;12.38;6.55;;;14.10;99.90;;;14.43;93.73;99626.00;5114809;28;20094;-69
2022/11/16 02:55:09;;;;;;;10.82;6.15;;;14.10;99.90;;;14.44;93.65;99625.94;5096418;28;20086;-70
2022/11/16 02:57:51;;;;;;;9.15;6.50;;;14.10;99.90;;;14.33;93.37;99614.00;5095667;28;20071;-69
2022/11/16 03:00:24;;;;;;;8.55;6.18;;;14.10;99.90;;;14.39;93.09;99624.41;5096343;28;20044;-69
2022/11/16 03:03:08;;;;;;;9.45;5.78;;;14.10;99.90;;;14.37;92.79;99623.59;5114298;28;20054;-70
2022/11/16 03:05:41;;;;;;;6.45;5.38;;;14.10;99.90;;;14.38;92.66;99625.34;5095967;28;20051;-70
2022/11/16 03:08:19;;;;;;;10.77;6.03;;;14.10;99.90;;;14.30;92.98;99619.47;5096066;28;20092;-69
2022/11/16 03:13:42;;;;;;;13.73;7.22;;;14.00;99.90;;;14.31;93.40;99627.38;5095959;28;20075;-69
2022/11/16 03:16:17;;;;;;;9.65;6.90;;;14.00;99.90;;;14.25;93.65;99616.06;5114189;28;20103;-69
2022/11/16 03:18:47;;;;;;;12.70;6.90;;;14.00;99.90;;;14.34;93.89;99632.56;5114187;28;20044;-69
2022/11/16 03:21:23;;;;;;;8.70;7.25;;;14.00;99.90;;;14.33;93.76;99630.84;5095839;28;20048;-69
2022/11/16 03:23:52;;;;;;;11.35;7.38;;;14.10;99.90;;;14.34;93.92;99627.22;5095612;28;20146;-69
2022/11/16 03:26:27;;;;;;;11.00;6.90;;;14.00;99.90;;;14.33;94.08;99621.97;5095655;28;20410;-70
2022/11/16 03:29:01;;;;;;;10.85;7.07;;;14.00;99.90;;;14.31;94.10;99631.81;5095686;28;20138;-69
2022/11/16 03:31:40;;;;;;;9.98;7.03;;;14.00;99.90;;;14.21;94.51;99625.06;5095583;28;20388;-69
2022/11/16 03:34:16;;;;;;;9.93;6.60;;;13.90;99.90;;;14.13;94.64;99622.72;5113740;28;20058;-69
2022/11/16 03:36:48;;;;;;;10.40;6.45;;;13.90;99.90;;;14.16;94.71;99629.72;5095476;28;20449;-69
2022/11/16 03:39:24;;;;;;;13.23;6.40;;;13.80;99.90;;;14.16;94.72;99632.38;5095488;28;20060;-71
2022/11/16 03:41:53;;;;;;;11.40;6.85;;;13.90;99.90;;;14.13;94.74;99633.34;5095404;28;20044;-69
2022/11/16 03:44:22;;;;;;;15.27;7.45;;;13.80;99.90;;;14.07;94.82;99635.41;5095141;28;20043;-69
2022/11/16 03:46:51;;;;;;;10.10;6.40;;;13.80;99.90;;;14.07;94.65;99630.09;5113637;28;20071;-70
2022/11/16 03:49:22;;;;;;;13.30;7.03;;;13.70;99.90;;;14.08;94.99;99631.81;5113468;28;20043;-69
2022/11/16 03:51:52;;;;;;;16.83;7.35;;;13.80;99.90;;;14.11;94.90;99632.56;5095297;28;20043;-68
2022/11/16 03:54:21;;;;;;;12.98;6.63;;;13.80;99.90;;;14.07;94.61;99630.09;5095294;28;20412;-69
2022/11/16 03:56:50;;;;;;;14.05;7.38;;;13.80;99.90;;;14.08;95.05;99637.13;5096009;28;20032;-68
2022/11/16 03:59:18;;;;;;;12.32;7.15;;;13.80;99.90;;;14.11;94.54;99632.56;5114039;28;20070;-69
2022/11/16 04:01:46;;;;;;;12.07;6.50;;;13.80;99.90;;;14.09;94.26;99625.56;5095755;28;20039;-69
2022/11/16 04:28:12;;;;;;;12.38;6.97;;;13.50;99.90;;;13.76;93.94;99649.00;5113501;28;20043;-69
2022/11/16 04:29:22;;;;;;;15.10;7.20;;;13.50;99.90;;;13.70;93.38;99637.69;5095195;28;20047;-69
2022/11/16 04:40:12;;;;;;;15.05;7.78;;;13.40;99.90;;;13.69;93.36;99647.47;5095156;28;20047;-68
2022/11/16 04:42:40;;;;;;;15.95;7.75;;;13.40;99.90;;;13.70;93.51;99648.34;5113575;28;20083;-68
2022/11/16 04:47:54;;;;;;;12.95;7.38;;;13.40;99.90;;;13.56;93.17;99644.41;5062555;28;20052;-68
2022/11/16 04:50:27;;;;;;;11.75;6.93;;;13.40;99.90;;;13.58;93.18;99661.16;5095462;28;20048;-68
2022/11/16 04:52:59;;;;;;;13.27;7.00;;;13.30;99.90;;;13.38;93.03;99641.50;5095151;28;20048;-68
2022/11/16 04:55:29;;;;;;;11.13;6.13;;;13.30;99.90;;;13.47;92.76;99668.63;5095412;28;20058;-68
2022/11/16 04:57:58;;;;;;;14.75;6.30;;;13.20;99.90;;;13.46;92.83;99669.53;5095427;28;20051;-68
2022/11/16 05:00:27;;;;;;;12.63;6.82;;;13.20;99.90;;;13.41;92.75;99663.50;5094982;28;20043;-69
2022/11/16 05:02:56;;;;;;;13.85;7.20;;;13.20;99.90;;;13.35;92.46;99657.56;5095182;28;20047;-68
2022/11/16 05:05:29;;;;;;;14.70;6.95;;;13.10;99.90;;;13.21;92.60;99660.69;5095071;28;20046;-68
2022/11/16 05:08:00;;;;;;;10.73;6.50;;;13.00;99.90;;;13.12;92.75;99665.47;5113131;28;20433;-68
2022/11/16 05:10:31;;;;;;;13.45;5.82;;;12.90;99.90;;;13.06;92.79;99655.94;5095142;28;20289;-68
2022/11/16 05:13:00;;;;;;;15.32;6.30;;;12.80;99.90;;;12.50;92.84;99579.97;5095087;28;20132;-68
2022/11/16 05:15:28;;;;;;;9.23;5.00;;;12.80;99.90;;;12.86;92.53;99639.75;5113254;28;20044;-68
2022/11/16 05:17:58;;;;;;;10.18;5.40;;;12.60;99.90;;;12.85;92.64;99653.09;5094682;28;20048;-68
2022/11/16 05:26:02;;;;;;;17.02;5.40;;;12.40;99.90;;;12.63;91.79;99659.09;5098500;28;20050;-68
2022/11/16 05:28:30;;;;;;;12.45;5.43;;;12.40;99.90;;;12.61;91.60;99676.84;5098636;28;20075;-68
2022/11/16 05:30:59;;;;;;;13.80;5.20;;;12.40;99.90;;;12.58;91.01;99657.50;5117087;28;20070;-68
2022/11/16 05:33:29;;;;;;;10.55;4.95;;;12.30;99.90;;;12.55;90.63;99655.81;5098561;28;20493;-68
2022/11/16 05:35:58;;;;;;;14.90;5.13;;;12.30;99.90;;;12.58;90.63;99652.19;5098412;28;20051;-68
2022/11/16 05:38:27;;;;;;;11.75;5.00;;;12.40;99.90;;;12.48;90.28;99641.03;5098325;28;20040;-68
2022/11/16 05:40:58;;;;;;;15.45;5.07;;;12.30;99.90;;;12.60;90.05;99653.03;5098303;28;20050;-68
2022/11/16 05:43:29;;;;;;;12.40;5.57;;;12.30;99.90;;;12.51;89.71;99637.38;5098313;28;20108;-68
2022/11/16 05:46:17;;;;;;;11.48;4.65;;;12.30;99.90;;;12.58;89.40;99657.50;5115642;28;20067;-68
2022/11/16 05:48:46;;;;;;;13.35;5.28;;;12.30;99.90;;;12.52;89.11;99650.59;5097982;28;20550;-68
2022/11/16 05:51:14;;;;;;;11.13;4.72;;;12.30;99.90;;;12.40;89.15;99647.47;5098182;28;20055;-68
2022/11/16 05:53:44;;;;;;;10.75;4.82;;;12.20;99.90;;;12.43;89.01;99658.84;5098197;28;20043;-68
2022/11/16 05:56:18;;;;;;;13.65;5.50;;;12.20;99.90;;;12.32;89.40;99660.97;5098162;28;20408;-69
2022/11/16 05:58:47;;;;;;;13.88;5.25;;;12.10;99.90;;;12.33;89.40;99664.50;5098058;28;20044;-69
2022/11/16 06:01:15;;;;;;;11.80;5.25;;;12.10;99.90;;;12.28;89.36;99669.06;5098066;28;20541;-68
2022/11/16 06:03:43;;;;;;;10.35;4.93;;;12.10;99.90;;;12.32;89.30;99668.91;5098026;28;20138;-68
2022/11/16 06:06:12;;;;;;;10.57;5.13;;;12.10;99.90;;;12.40;89.29;99673.97;5098875;28;20036;-68
2022/11/16 06:08:42;;;;;;;11.30;5.13;;;12.10;99.90;;;12.33;88.82;99678.59;5098012;28;20054;-68
2022/11/16 06:11:16;;;;;;;12.05;4.80;;;12.10;99.90;;;12.37;89.09;99674.06;5098102;28;20489;-68
2022/11/16 06:13:45;;;;;;;10.43;4.80;;;12.10;99.90;;;12.40;88.96;99673.97;5097900;28;20579;-68
2022/11/16 06:16:14;;;;;;;15.38;4.95;;;12.10;99.90;;;12.33;88.37;99667.16;5097762;28;20043;-67
2022/11/16 06:18:45;;;;;;;10.13;4.72;;;12.10;99.90;;;12.23;87.99;99676.28;5097642;28;20048;-68
2022/11/16 06:21:19;;;;;;;10.10;5.18;;;12.10;99.90;;;12.17;88.55;99666.75;5115946;28;20158;-68
2022/11/16 06:23:47;;;;;;;10.52;5.45;;;12.00;99.90;;;12.18;88.58;99673.78;5115897;28;20031;-68
2022/11/16 06:26:18;;;;;;;13.50;5.72;;;12.00;99.90;;;12.21;88.90;99673.69;5097491;28;20044;-68
2022/11/16 06:28:47;;;;;;;11.93;5.55;;;12.00;99.90;;;12.22;88.94;99677.19;5097537;28;20086;-68
2022/11/16 06:31:15;;;;;;;15.68;5.60;;;12.00;99.90;;;11.99;88.58;99653.16;5114813;28;20041;-68
2022/11/16 06:33:45;;;;;;;11.75;5.40;;;11.90;99.90;;;12.03;89.38;99674.22;5097646;28;20453;-68
2022/11/16 06:36:21;;;;;;;20.08;5.70;;;11.80;99.90;;;12.06;89.53;99674.13;5097670;28;20044;-68
2022/11/16 06:38:50;;;;;;;12.32;4.90;;;11.80;99.90;;;11.92;89.32;99659.56;5096913;28;20047;-68
2022/11/16 06:41:21;;;;;;;12.23;5.18;;;11.80;99.90;;;12.01;89.70;99683.13;5097280;28;20043;-68
2022/11/16 06:43:51;;;;;;;17.80;6.43;;;11.80;99.90;;;11.89;90.33;99686.13;5097279;28;20048;-69
2022/11/16 06:46:24;;;;;;;11.23;5.68;;;11.70;99.90;;;11.91;90.47;99673.69;5096947;28;20051;-69
2022/11/16 06:48:53;;;;;;;;;;;11.70;99.90;;;11.94;90.79;99686.88;5097451;28;20059;-69
2022/11/16 06:51:22;;;;;;;14.23;5.85;;;11.70;99.90;;;11.88;91.29;99690.56;5097178;28;19919;-69
2022/11/16 06:53:50;;;;;;;11.50;5.38;;;11.70;99.90;;;11.79;91.80;99702.28;5096885;28;20050;-69
2022/11/16 06:56:21;;;;;;;13.98;5.18;;;11.60;99.90;;;11.81;92.00;99694.28;5096825;28;20082;-69
2022/11/16 06:58:56;;;;;;;15.90;5.80;;;11.60;99.90;;;11.79;92.47;99698.75;5096751;28;20043;-69
2022/11/16 07:01:26;;;;;;;14.38;5.63;;;11.60;99.90;;;11.76;92.70;99689.16;5096870;28;20058;-69
2022/11/16 07:04:00;;;;;;;12.13;5.38;;;11.60;99.90;;;11.73;93.00;99693.63;5096827;28;20046;-69
2022/11/16 07:06:29;;;;;;;16.00;6.00;;;11.50;99.90;;;11.61;93.25;99681.56;5096515;28;20044;-68
2022/11/16 07:08:58;;;;;;;15.63;6.10;;;11.50;99.90;;;11.72;93.05;99706.03;5096592;28;20040;-69
2022/11/16 07:11:32;;;;;;;14.07;5.68;;;11.50;99.90;;;11.63;93.22;99697.44;5096657;28;20051;-69
2022/11/16 07:14:01;;;;;;;15.00;5.40;;;11.50;99.90;;;11.62;93.78;99700.97;5096625;28;20489;-69
2022/11/16 07:16:30;;;;;;;14.55;5.70;;;11.40;99.90;;;11.55;93.98;99702.94;5096424;28;20046;-69
2022/11/16 07:19:03;;;;;;;17.45;6.13;;;11.40;99.90;;;11.54;94.49;99706.50;5096448;28;20427;-69
2022/11/16 07:21:33;;;;;;;13.23;5.93;;;11.40;99.90;;;11.38;94.70;99677.84;5096107;28;20051;-69
2022/11/16 07:24:06;;;;;;;13.57;5.30;;;11.40;99.90;;;11.18;94.80;99638.66;5096180;28;20051;-69
2022/11/16 07:26:36;;;;;;;22.08;5.93;;;11.40;99.90;;;11.73;94.55;99728.94;5096272;28;20044;-69
2022/11/16 07:29:12;;;;;;;23.10;7.38;;;11.50;99.90;;;11.86;94.16;99710.06;5096565;28;20511;-68
2022/11/16 07:31:45;;;;;;;15.25;6.40;;;11.70;99.90;;;11.92;93.65;99716.06;5096291;28;20048;-69
2022/11/16 07:34:45;;;;;;;16.42;5.97;;;11.70;99.90;;;12.03;93.32;99715.75;5113920;28;20048;-69
2022/11/16 07:37:16;;;;;;;16.35;6.18;;;11.80;99.90;;;12.15;93.04;99726.88;5096489;28;20138;-69
2022/11/16 07:39:45;;;;;;;15.88;6.28;;;11.90;99.90;;;12.28;92.28;99725.59;5096085;28;20048;-68
2022/11/16 07:42:15;;;;;;;19.95;6.32;;;12.10;99.90;;;12.37;91.86;99729.75;5095919;28;20039;-68
2022/11/16 07:44:51;;;;;;;18.23;6.65;;;12.20;99.90;;;12.29;91.42;99729.97;5113993;28;20074;-69
2022/11/16 07:47:19;;;;;;;16.58;5.85;;;12.20;99.90;;;12.38;91.18;99747.41;5095944;28;20097;-69
2022/11/16 07:49:48;;;;;;;17.30;6.57;;;12.20;99.90;;;12.35;91.01;99743.06;5095695;28;20581;-69
2022/11/16 07:52:21;;;;;;;15.18;5.93;;;12.20;99.90;;;12.58;90.60;99732.63;5095864;28;20138;-68
2022/11/16 07:54:57;;;;;;;15.43;6.32;;;12.40;99.90;;;12.68;89.69;99746.47;5114055;28;20036;-69
2022/11/16 07:57:29;;;;;;;16.85;5.80;;;12.50;99.90;;;12.69;89.14;99740.25;5113957;28;20047;-68
2022/11/16 08:00:01;;;;;;;19.10;6.65;;;12.50;99.90;;;12.80;88.64;99739.91;5096137;28;20065;-68
2022/11/16 08:02:40;;;;;;;15.68;6.05;;;12.60;99.90;;;12.82;88.07;99744.25;5113743;28;20059;-68
2022/11/16 08:05:16;;;;;;;12.05;5.65;;;12.70;99.90;;;12.81;87.48;99758.47;5095755;28;20054;-69
2022/11/16 08:07:44;;;;;;;19.10;7.22;;;12.70;99.90;;;12.53;87.89;99749.59;5095274;28;20043;-68
2022/11/16 08:10:13;;;;;;;19.25;5.90;;;12.60;99.90;;;12.74;88.62;99758.69;5096038;28;20065;-69
2022/11/16 08:12:43;;;;;;;16.15;6.03;;;12.60;99.90;;;12.59;87.98;99744.09;5113608;28;20043;-69
2022/11/16 08:15:12;;;;;;;14.97;6.37;;;12.60;99.90;;;12.62;88.30;99749.31;5095520;28;20044;-68
2022/11/16 08:17:41;;;;;;;18.77;5.88;;;12.50;99.90;;;12.46;88.92;99764.84;5095564;28;20048;-68
2022/11/16 08:20:12;;;;;;;;;;;12.40;99.90;;;12.58;88.85;99758.31;5096229;28;20097;-68
2022/11/16 08:22:41;;;;;;;14.45;5.97;;;12.40;99.90;;;12.61;88.08;99760.84;5113408;28;20361;-68
2022/11/16 08:25:10;;;;;;;12.88;5.55;;;12.50;99.90;;;12.57;88.63;99748.59;5095384;28;20082;-68
2022/11/16 08:27:44;;;;;;;16.80;6.10;;;12.40;99.90;;;12.74;88.30;99729.53;5095388;28;20085;-68
2022/11/16 08:30:14;;;;;;;13.88;5.85;;;12.60;99.90;;;13.11;86.72;99746.00;5095549;28;20139;-68
2022/11/16 08:32:44;;;;;;;17.42;6.28;;;12.90;99.90;;;13.55;85.89;99766.63;5095476;28;20113;-68
2022/11/16 08:35:14;;;;;;;17.67;5.93;;;13.30;99.90;;;13.89;83.83;99750.41;5094996;28;20051;-68
2022/11/16 08:37:44;;;;;;;16.15;6.10;;;13.60;99.90;;;14.19;82.26;99760.78;5095376;28;20640;-68
2022/11/16 08:40:13;;;;;;;14.05;5.10;;;14.00;99.90;;;14.50;80.94;99762.34;5113493;28;20059;-68
2022/11/16 08:42:44;;;;;;;14.18;4.95;;;14.30;99.90;;;14.40;78.86;99752.03;5095386;28;20135;-71
2022/11/16 08:45:14;;;;;;;21.48;6.50;;;14.30;99.90;;;13.91;79.35;99762.72;5095531;28;20370;-68
2022/11/16 08:47:42;;;;;;;17.98;5.45;;;14.00;99.90;;;14.35;79.73;99758.44;5095205;28;20043;-68
2022/11/16 08:50:11;;;;;;;16.92;5.43;;;14.10;99.90;;;14.30;79.17;99758.63;5094873;28;20153;-69
2022/11/16 08:52:39;;;;;;;14.18;6.10;;;14.10;99.90;;;14.31;78.17;99763.03;5095289;28;20051;-69
2022/11/16 08:55:09;;;;;;;14.20;6.10;;;14.10;99.90;;;14.13;78.04;99776.09;5096599;28;20404;-68
2022/11/16 08:57:38;;;;;;;12.35;5.90;;;14.00;99.90;;;13.66;79.57;99760.97;5117319;28;20052;-69
2022/11/16 09:00:13;;;;;;;15.07;5.35;;;13.60;99.90;;;13.49;81.82;99759.75;5099301;28;20043;-68
2022/11/16 09:02:41;;;;;;;11.05;5.40;;;13.40;99.90;;;13.69;81.72;99763.50;5117476;28;20040;-68
2022/11/16 09:05:10;;;;;;;15.57;5.90;;;13.50;99.90;;;14.19;81.30;99747.47;5099086;28;20039;-69
2022/11/16 09:07:39;;;;;;;13.07;5.43;;;13.90;99.90;;;14.44;78.60;99782.91;5116771;28;20062;-68
2022/11/16 09:10:09;;;;;;;13.20;5.18;;;14.20;99.90;;;14.35;78.42;99731.84;5116881;28;20148;-68
2022/11/16 09:12:38;;;;;;;15.02;5.68;;;14.30;99.90;;;14.53;78.12;99759.56;5116997;28;20126;-68
2022/11/16 09:15:08;;;;;;;12.95;5.70;;;14.40;99.90;;;14.75;77.36;99753.31;5099103;28;20040;-69
2022/11/16 09:17:38;;;;;;;19.38;5.75;;;14.60;99.90;;;15.06;76.74;99761.84;5117135;28;20063;-68
2022/11/16 09:20:08;;;;;;;21.93;5.33;;;14.90;99.90;;;15.22;75.70;99789.59;5116781;28;20047;-69
2022/11/16 09:22:36;;;;;;;11.43;5.05;;;15.00;99.90;;;15.09;74.59;99768.84;5116906;28;20294;-68
2022/11/16 09:25:07;;;;;;;11.52;5.10;;;14.90;99.90;;;14.98;74.61;99763.09;5098443;28;20040;-68
2022/11/16 09:27:35;;;;;;;18.85;6.05;;;14.80;99.90;;;14.94;74.92;99764.97;5116774;28;20160;-68
2022/11/16 09:30:05;;;;;;;11.23;5.15;;;14.80;99.90;;;14.86;75.54;99775.09;5116769;28;20053;-69
2022/11/16 09:32:33;;;;;;;14.27;5.35;;;14.70;99.90;;;14.60;76.06;99767.25;5116788;28;20485;-69
2022/11/16 09:35:03;;;;;;;13.80;6.05;;;14.50;99.90;;;14.39;76.88;99736.13;5098349;28;20043;-69
2022/11/16 09:37:31;;;;;;;12.97;5.37;;;14.40;99.90;;;14.70;77.06;99771.28;5116758;28;20047;-69
2022/11/16 09:40:00;;;;;;;15.63;5.57;;;14.50;99.90;;;14.58;76.85;99771.75;5098395;28;20043;-70
2022/11/16 09:42:51;;;;;;;15.35;5.53;;;14.40;99.90;;;14.35;77.43;99793.03;5116841;28;20054;-69
2022/11/16 09:45:25;;;;;;;13.70;5.68;;;14.40;99.90;;;14.32;79.89;99761.25;5116964;28;20053;-69
2022/11/16 09:48:00;;;;;;;13.13;5.45;;;14.10;99.90;;;14.52;79.36;99769.31;5117032;28;20040;-69
2022/11/16 09:50:41;;;;;;;16.02;5.90;;;14.30;99.90;;;14.42;79.91;99786.53;5117183;28;20146;-69
2022/11/16 09:53:23;;;;;;;14.10;6.20;;;14.30;99.90;;;14.50;78.49;99780.97;5116612;28;20503;-69
2022/11/16 09:55:54;;;;;;;14.35;5.22;;;14.30;99.90;;;14.46;77.75;99774.88;5117028;28;20461;-69
2022/11/16 09:58:28;;;;;;;14.45;5.50;;;14.30;99.90;;;14.17;78.08;99762.63;5116262;28;20061;-69
2022/11/16 10:01:06;;;;;;;15.95;5.60;;;14.20;99.90;;;14.02;78.53;99771.16;5116277;28;20481;-69
2022/11/16 10:03:42;;;;;;;15.13;6.38;;;13.90;99.90;;;13.99;79.16;99781.94;5098116;28;20039;-69
2022/11/16 10:06:21;;;;;;;14.40;6.20;;;13.80;99.90;;;13.63;80.86;99753.13;5115846;28;20043;-69
2022/11/16 10:08:51;;;;;;;15.43;5.93;;;13.70;99.90;;;13.56;82.98;99763.94;5116252;28;20397;-69
2022/11/16 10:11:45;;;;;;;11.07;5.65;;;13.40;99.90;;;13.56;82.41;99763.94;5116509;28;20396;-69
2022/11/16 10:14:43;;;;;;;14.32;5.78;;;13.40;99.90;;;13.23;83.26;99778.34;5115778;28;20046;-69
2022/11/16 10:17:25;;;;;;;15.82;5.93;;;13.10;99.90;;;13.34;82.94;99778.84;5113199;28;20059;-69
2022/11/16 10:20:12;;;;;;;15.50;6.30;;;13.20;99.90;;;13.34;83.09;99772.66;5097719;28;20143;-69
2022/11/16 10:22:49;;;;;;;15.95;6.22;;;13.20;99.90;;;13.35;82.67;99751.41;5115622;28;20113;-69
2022/11/16 10:25:23;;;;;;;19.67;6.13;;;13.30;99.90;;;13.50;82.45;99763.28;5115565;28;20062;-69
2022/11/16 10:28:47;;;;;;;15.30;5.57;;;13.30;99.90;;;13.57;83.57;99765.66;5115919;28;20043;-69
2022/11/16 10:31:23;;;;;;;12.80;5.80;;;13.30;99.90;;;13.65;83.04;99759.22;5115484;28;20568;-69
2022/11/16 10:33:56;;;;;;;16.70;6.07;;;13.40;99.90;;;13.47;82.11;99768.72;5115674;28;20047;-69
2022/11/16 10:36:27;;;;;;;12.48;5.80;;;13.40;99.90;;;13.34;83.83;99754.06;5115771;28;20043;-69
2022/11/16 10:39:01;;;;;;;17.55;6.35;;;13.20;99.90;;;13.62;83.38;99767.31;5115418;28;20044;-69
2022/11/16 10:41:36;;;;;;;14.50;6.35;;;13.40;99.90;;;13.70;84.37;99763.47;5097151;28;20052;-69
2022/11/16 10:44:16;;;;;;;11.63;6.00;;;13.50;99.90;;;13.54;83.29;99752.50;5097197;28;20523;-70
2022/11/16 10:46:49;;;;;;;;;;;13.40;99.90;;;13.44;84.31;99748.41;5115690;28;20081;-69
2022/11/16 10:49:28;;;;;;;16.58;6.30;;;13.20;99.90;;;13.45;84.01;99752.78;5097112;28;20022;-69
2022/11/16 10:51:56;;;;;;;19.80;6.50;;;13.30;99.90;;;13.08;84.66;99747.00;5114943;28;20061;-70
2022/11/16 10:54:26;;;;;;;19.10;6.63;;;13.00;99.90;;;13.13;85.45;99746.81;5114961;28;20110;-70
2022/11/16 10:57:03;;;;;;;20.85;6.88;;;13.00;99.90;;;13.01;85.56;99756.03;5115129;28;20043;-70
2022/11/16 10:59:43;;;;;;;14.02;6.88;;;12.90;99.90;;;12.88;85.79;99751.16;5114766;28;20484;-70
2022/11/16 11:02:31;;;;;;;14.17;6.50;;;12.80;99.90;;;12.95;86.34;99761.53;5114883;28;20051;-70
2022/11/16 11:05:14;;;;;;;20.05;6.95;;;12.80;99.90;;;12.87;87.13;99755.63;5115100;28;20305;-70
2022/11/16 11:07:46;;;;;;;17.83;6.97;;;12.70;99.90;;;12.64;87.15;99742.16;5096758;28;20058;-70
2022/11/16 11:10:29;;;;;;;21.63;7.03;;;12.70;99.90;;;12.84;87.63;99750.38;5115068;28;20079;-71
2022/11/16 11:13:23;;;;;;;18.58;7.28;;;12.70;99.90;;;12.89;88.26;99761.72;5115251;28;20039;-70
2022/11/16 11:15:53;;;;;;;16.15;7.05;;;12.70;99.90;;;12.83;87.78;99774.31;5114926;28;20488;-70
2022/11/16 11:18:28;;;;;;;17.88;6.30;;;12.70;99.90;;;12.80;87.01;99769.09;5114306;28;20126;-69